ADDS METAR Data INFO
IDs: Format: Raw Decoded Include TAF

Data at: 2055 UTC 19 Jul 2018

KOLY 192035Z AUTO 22003KT 10SM CLR 29/16 A2993 RMK AO2 T02860162
KOLY 192015Z AUTO 19003KT 10SM SCT110 29/15 A2993 RMK AO2 T02860148
KOLY 191955Z AUTO 19003KT 10SM BKN100 29/15 A2994 RMK AO2 T02850145
KOLY 191935Z AUTO 18006KT 10SM SCT110 30/15 A2994 RMK AO2 T02950148
KOLY 191910Z AUTO 18005KT 10SM BKN110 29/14 A2995 RMK AO2 T02940140
KOLY 191855Z AUTO 16006KT 10SM BKN110 30/14 A2995 RMK AO2 T02950136
KOLY 191835Z AUTO 19006KT 10SM BKN110 29/12 A2995 RMK AO2 T02940122
KOLY 191810Z AUTO 16005KT 10SM SCT110 30/12 A2996 RMK AO2 T02970123
KOLY 191800Z AUTO 18003KT 10SM CLR 30/12 A2995 RMK AO2 T02950117
KOLY 191735Z AUTO 16005KT 10SM CLR 29/13 A2997 RMK AO2 T02860127
KOLY 191710Z AUTO 19005KT 10SM SCT120 29/14 A2998 RMK AO2 T02850138
KOLY 191655Z AUTO 14007KT 10SM SCT120 28/15 A2998 RMK AO2 T02810152
KOLY 191635Z AUTO 14006KT 10SM SCT120 28/15 A2998 RMK AO2 T02750149
KOLY 191610Z AUTO 15007KT 10SM CLR 28/15 A2998 RMK AO2 T02760147
KOLY 191555Z AUTO 16007KT 10SM CLR 27/14 A2998 RMK AO2 T02700141
KOLY 191530Z AUTO 12006KT 10SM CLR 26/14 A2998 RMK AO2 T02630140
KOLY 191515Z AUTO 13005KT 10SM CLR 26/15 A2999 RMK AO2 T02580153
KOLY 191455Z AUTO 14003KT 10SM CLR 24/15 A2999 RMK AO2 T02420153
KOLY 191435Z AUTO 14005KT 10SM CLR 24/15 A2999 RMK AO2 T02400146
KOLY 191415Z AUTO 11004KT 10SM CLR 23/15 A2999 RMK AO2 T02310151
KOLY 191355Z AUTO 12003KT 10SM CLR 22/16 A3000 RMK AO2 T02210158
KOLY 191330Z AUTO 12004KT 10SM CLR 21/18 A3000 RMK AO2 T02110175
KOLY 191315Z AUTO 12003KT 10SM CLR 21/18 A3000 RMK AO2 T02060178
KOLY 191255Z AUTO 00000KT 10SM CLR 20/18 A3000 RMK AO2 T02020178
KOLY 191235Z AUTO 00000KT 10SM CLR 20/19 A3000 RMK AO2 LTG DSNT NW T01960185
KOLY 191215Z AUTO 00000KT 10SM CLR 19/18 A3000 RMK AO2 T01880175
KOLY 191155Z AUTO 00000KT 10SM CLR 18/16 A2999 RMK AO2 T01750163 10175 20151
KOLY 191135Z AUTO 00000KT 10SM CLR 17/15 A2999 RMK AO2 T01650153
KOLY 191110Z AUTO 00000KT 10SM CLR 15/14 A2999 RMK AO2 T01510140
KOLY 191055Z AUTO 00000KT 10SM CLR 16/14 A2999 RMK AO2 T01550143
KOLY 191035Z AUTO 00000KT 7SM CLR 15/14 A2999 RMK AO2 T01520141
KOLY 191010Z AUTO 00000KT 10SM CLR 15/14 A2998 RMK AO2 T01540142
KOLY 190955Z AUTO 07003KT 10SM CLR 16/15 A2998 RMK AO2 T01590147
KOLY 190935Z AUTO 00000KT 10SM CLR 16/15 A2998 RMK AO2 T01570147
KOLY 190915Z AUTO 00000KT 10SM CLR 16/15 A2998 RMK AO2 T01590148
KOLY 190855Z AUTO 07004KT 10SM CLR 16/15 A2998 RMK AO2 T01600148
KOLY 190836Z AUTO 00000KT 10SM CLR 16/14 A2999 RMK AO2
KOLY 190815Z AUTO 00000KT 10SM CLR 16/14 A2999 RMK AO2 T01550143
KOLY 190750Z AUTO 00000KT 10SM CLR 16/15 A2999 RMK AO2 T01560145
KOLY 190735Z AUTO 00000KT 10SM CLR 16/15 A3000 RMK AO2 T01620150
KOLY 190710Z AUTO 00000KT 10SM CLR 16/15 A3001 RMK AO2 T01610150
KOLY 190655Z AUTO 00000KT 10SM CLR 16/15 A3001 RMK AO2 T01600147
KOLY 190635Z AUTO 00000KT 10SM CLR 16/15 A3001 RMK AO2 T01600148
KOLY 190615Z AUTO 00000KT 10SM CLR 16/15 A3002 RMK AO2 T01560145
KOLY 190535Z AUTO 30003KT 10SM CLR 17/15 A3002 RMK AO2 T01650152
KOLY 190515Z AUTO 00000KT 10SM CLR 16/15 A3002 RMK AO2 T01620151
KOLY 190450Z AUTO 00000KT 10SM CLR 16/15 A3003 RMK AO2 T01610150
KOLY 190430Z AUTO 00000KT 10SM CLR 16/15 A3002 RMK AO2 T01630151
KOLY 190415Z AUTO 03003KT 10SM CLR 16/15 A3001 RMK AO2 T01610150
KOLY 190355Z AUTO 00000KT 10SM CLR 16/15 A3002 RMK AO2 T01630151
KOLY 190335Z AUTO 00000KT 10SM CLR 17/15 A3002 RMK AO2 T01650154
KOLY 190310Z AUTO 03003KT 10SM CLR 17/16 A3002 RMK AO2 T01680156
KOLY 190255Z AUTO 36003KT 10SM CLR 18/16 A3002 RMK AO2 T01750164
KOLY 190235Z AUTO 00000KT 10SM CLR 18/17 A3002 RMK AO2 T01760165
KOLY 190215Z AUTO 00000KT 10SM CLR 18/17 A3001 RMK AO2 T01800167
KOLY 190155Z AUTO 00000KT 10SM CLR 19/17 A3000 RMK AO2 T01860174
KOLY 190130Z AUTO 01003KT 10SM CLR 20/19 A3000 RMK AO2 T01960185
KOLY 190115Z AUTO 00000KT 10SM CLR 21/18 A3001 RMK AO2 T02090175
KOLY 190055Z AUTO 00000KT 10SM CLR 23/16 A3001 RMK AO2 T02260156
KOLY 190035Z AUTO 00000KT 10SM CLR 25/13 A3001 RMK AO2 T02470131
KOLY 190015Z AUTO 02004KT 10SM CLR 26/12 A3000 RMK AO2 T02600122
KOLY 182355Z AUTO 03005KT 10SM CLR 27/12 A3000 RMK AO2 T02670117 10289 20267
KOLY 182335Z AUTO 03005KT 10SM CLR 27/13 A3000 RMK AO2 T02670126
KOLY 182315Z AUTO 02006KT 10SM CLR 27/13 A3000 RMK AO2 T02700126
KOLY 182255Z AUTO 03006KT 10SM CLR 28/12 A3001 RMK AO2 T02770123
KOLY 182235Z AUTO 01006KT 10SM CLR 28/12 A3001 RMK AO2 T02810122
KOLY 182215Z AUTO 04004KT 10SM CLR 28/12 A3001 RMK AO2 T02840120
KOLY 182155Z AUTO 36005KT 10SM CLR 29/14 A3001 RMK AO2 T02850135
KOLY 182135Z AUTO 02006KT 10SM CLR 28/13 A3002 RMK AO2 T02840129
KOLY 182115Z AUTO 01008KT 10SM CLR 28/14 A3002 RMK AO2 T02820135
KOLY 182100Z AUTO 01004KT 10SM CLR 28/13 A3002 RMK AO2 T02840132
KOLY 182035Z AUTO 02006KT 10SM CLR 28/14 A3004 RMK AO2 T02840136
KOLY 182015Z AUTO 36005KT 10SM CLR 28/14 A3005 RMK AO2 T02830137
KOLY 181955Z AUTO 00000KT 10SM CLR 28/14 A3005 RMK AO2 T02790140
KOLY 181935Z AUTO 35007KT 10SM CLR 28/15 A3006 RMK AO2 T02800145
KOLY 181915Z AUTO 35004KT 10SM CLR 28/15 A3006 RMK AO2 T02810146
KOLY 181855Z AUTO 36004KT 10SM CLR 28/14 A3007 RMK AO2 T02760143
KOLY 181835Z AUTO 36006KT 10SM CLR 28/14 A3008 RMK AO2 T02800139
KOLY 181815Z AUTO 05005KT 10SM CLR 28/14 A3007 RMK AO2 T02830143
KOLY 181750Z AUTO 01006KT 10SM CLR 28/15 A3008 RMK AO2 T02800149 10280 20192
KOLY 181735Z AUTO 06005KT 10SM CLR 27/14 A3008 RMK AO2 T02720143
KOLY 181715Z AUTO 04004KT 10SM CLR 27/14 A3009 RMK AO2 T02740141
KOLY 181655Z AUTO 02004KT 10SM CLR 27/15 A3009 RMK AO2 T02710148
KOLY 181635Z AUTO 06006KT 10SM CLR 27/14 A3010 RMK AO2 T02650144
KOLY 181615Z AUTO 06006KT 10SM CLR 26/13 A3010 RMK AO2 T02610129
KOLY 181555Z AUTO 06006KT 10SM CLR 26/13 A3010 RMK AO2 T02600127
KOLY 181530Z AUTO 10005KT 10SM CLR 26/12 A3011 RMK AO2 T02570120
KOLY 181515Z AUTO 08007KT 10SM CLR 25/12 A3011 RMK AO2 T02540118
KOLY 181455Z AUTO 04005KT 10SM CLR 26/12 A3010 RMK AO2 T02550123
KOLY 181435Z AUTO 08007KT 10SM CLR 24/10 A3010 RMK AO2 T02420103
KOLY 181415Z AUTO 05006KT 10SM CLR 24/12 A3010 RMK AO2 T02410116
KOLY 181355Z AUTO 05005KT 10SM CLR 23/12 A3010 RMK AO2 T02330124
KOLY 181335Z AUTO 06003KT 10SM CLR 22/13 A3010 RMK AO2 T02220131
KOLY 181316Z AUTO 06005KT 10SM CLR 22/14 A3010 RMK AO2
KOLY 181255Z AUTO 06006KT 10SM CLR 22/15 A3010 RMK AO2 T02150149
KOLY 181240Z AUTO 06005KT 10SM CLR 21/16 A3010 RMK AO2 T02050159
KOLY 181215Z AUTO 06005KT 10SM CLR 20/17 A3009 RMK AO2 T01950169
KOLY 181155Z AUTO 04004KT 10SM CLR 19/17 A3010 RMK AO2 T01920172 10215 20180
KOLY 181130Z AUTO 05004KT 10SM CLR 19/17 A3009 RMK AO2 T01850172
KOLY 181115Z AUTO 05003KT 10SM CLR 18/17 A3009 RMK AO2 T01820170
KOLY 181055Z AUTO 05004KT 10SM CLR 18/17 A3009 RMK AO2 T01820171
KOLY 181030Z AUTO 04005KT 10SM CLR 19/17 A3008 RMK AO2 T01850173
KOLY 180950Z AUTO 05004KT 10SM CLR 19/18 A3008 RMK AO2 T01860175
KOLY 180936Z AUTO 06004KT 10SM CLR 19/18 A3008 RMK AO2
KOLY 180910Z AUTO 05004KT 10SM CLR 20/18 A3008 RMK AO2 T01960181